Time;durP1;ratioP1;P1;durP2;ratioP2;P2;SDS_P1;SDS_P2;PMS_P1;PMS_P2;Temp;Humidity;BMP_temperature;BMP_pressure;BME280_temperature;BME280_humidity;BME280_pressure;Samples;Min_cycle;Max_cycle;Signal;HPM_P1;HPM_P2
2023/03/26 00:01:15;;;;;;;13.73;3.47;;;7.50;99.90;;;;;;5060145;28;20072;-84
2023/03/26 00:03:43;;;;;;;12.05;2.88;;;7.60;99.90;;;;;;5077732;28;20052;-85
2023/03/26 00:06:12;;;;;;;16.00;3.78;;;7.50;99.90;;;;;;5058623;28;20048;-84
2023/03/26 00:08:40;;;;;;;10.13;2.65;;;7.50;99.90;;;;;;5057542;28;20532;-84
2023/03/26 00:11:09;;;;;;;21.30;3.70;;;7.40;99.90;;;;;;5063457;28;20052;-86
2023/03/26 00:13:35;;;;;;;14.18;3.13;;;7.40;99.90;;;;;;5077090;28;20040;-84
2023/03/26 00:16:01;;;;;;;14.45;2.50;;;7.40;99.90;;;;;;5051867;28;20053;-84
2023/03/26 00:18:33;;;;;;;12.88;2.42;;;7.40;99.90;;;;;;5069511;28;20076;-84
2023/03/26 00:21:04;;;;;;;17.65;3.35;;;7.40;99.90;;;;;;5060737;28;20486;-84
2023/03/26 00:23:32;;;;;;;19.00;2.90;;;7.40;99.90;;;;;;5045935;28;20129;-84
2023/03/26 00:25:59;;;;;;;14.45;2.72;;;7.30;99.90;;;;;;5069205;28;20508;-84
2023/03/26 00:28:26;;;;;;;17.38;3.38;;;7.20;99.90;;;;;;5067352;28;20591;-85
2023/03/26 00:31:04;;;;;;;12.43;2.60;;;7.10;99.90;;;;;;5048810;28;20045;-83
2023/03/26 00:33:37;;;;;;;12.25;2.10;;;7.00;99.90;;;;;;5065614;28;20142;-84
2023/03/26 00:36:05;;;;;;;15.38;2.97;;;7.00;99.90;;;;;;5066906;28;20056;-84
2023/03/26 00:38:32;;;;;;;36.08;4.32;;;7.00;99.90;;;;;;5076500;28;20062;-83
2023/03/26 00:41:04;;;;;;;9.55;2.17;;;7.10;99.90;;;;;;5069303;28;20056;-84
2023/03/26 00:43:37;;;;;;;13.45;2.05;;;7.20;99.90;;;;;;5052280;28;20094;-84
2023/03/26 00:46:03;;;;;;;12.52;2.45;;;7.20;99.90;;;;;;5072980;28;20068;-85
2023/03/26 00:48:29;;;;;;;10.55;2.22;;;7.20;99.90;;;;;;5073218;28;20088;-84
2023/03/26 00:50:56;;;;;;;16.00;2.00;;;7.20;99.90;;;;;;5026955;28;1125956;-85
2023/03/26 00:53:22;;;;;;;11.00;3.05;;;7.30;99.90;;;;;;5039093;28;20059;-83
2023/03/26 00:55:48;;;;;;;14.65;2.08;;;7.30;99.90;;;;;;5046516;28;20071;-84
2023/03/26 00:58:14;;;;;;;10.05;2.47;;;7.30;99.90;;;;;;5053939;28;20049;-84
2023/03/26 01:00:58;;;;;;;18.33;2.17;;;7.30;99.90;;;;;;5086260;28;20049;-84
2023/03/26 01:03:29;;;;;;;13.35;2.03;;;7.40;99.90;;;;;;5071812;28;20032;-84
2023/03/26 01:06:03;;;;;;;15.82;2.97;;;7.30;99.90;;;;;;5081187;28;20044;-84
2023/03/26 01:08:41;;;;;;;11.57;1.83;;;7.30;99.90;;;;;;5048025;28;20056;-84
2023/03/26 01:11:29;;;;;;;10.13;1.90;;;7.30;99.90;;;;;;5052443;28;20048;-84
2023/03/26 01:14:03;;;;;;;19.38;2.83;;;7.20;99.90;;;;;;5070035;28;20393;-85
2023/03/26 01:16:44;;;;;;;12.55;2.58;;;7.20;99.90;;;;;;5067633;28;20044;-84
2023/03/26 01:19:40;;;;;;;9.07;1.95;;;7.20;99.90;;;;;;5084574;28;20048;-83
2023/03/26 01:22:10;;;;;;;13.77;2.15;;;7.20;99.90;;;;;;5081618;28;20055;-84
2023/03/26 01:24:37;;;;;;;12.30;2.15;;;7.20;99.90;;;;;;5076751;28;20194;-84
2023/03/26 01:27:23;;;;;;;10.63;2.63;;;7.20;99.90;;;;;;5045817;28;20405;-84
2023/03/26 01:29:58;;;;;;;13.40;2.20;;;7.20;99.90;;;;;;5067337;28;20056;-85
2023/03/26 01:32:42;;;;;;;15.20;2.30;;;7.20;99.90;;;;;;5083558;28;20036;-84
2023/03/26 01:35:35;;;;;;;12.55;2.20;;;7.20;99.90;;;;;;5062609;28;20048;-84
2023/03/26 01:38:17;;;;;;;10.45;2.28;;;7.20;99.90;;;;;;5055414;28;20059;-85
2023/03/26 01:40:56;;;;;;;10.65;1.88;;;7.20;99.90;;;;;;5078390;28;20045;-85
2023/03/26 01:43:28;;;;;;;14.27;2.50;;;7.20;99.90;;;;;;5062210;28;20110;-84
2023/03/26 01:45:58;;;;;;;12.55;1.90;;;7.20;99.90;;;;;;5065241;28;20064;-84
2023/03/26 01:48:30;;;;;;;10.02;3.15;;;7.10;99.90;;;;;;5052605;28;20040;-84
2023/03/26 01:50:57;;;;;;;12.32;2.58;;;7.20;99.90;;;;;;5068886;28;20056;-85
2023/03/26 01:53:23;;;;;;;10.13;2.10;;;7.10;99.90;;;;;;5053336;28;20084;-85
2023/03/26 01:56:28;;;;;;;12.38;2.15;;;7.10;99.90;;;;;;5066750;28;20055;-84
2023/03/26 01:59:26;;;;;;;17.20;2.45;;;7.10;99.90;;;;;;5040629;28;20064;-84
2023/03/26 02:02:14;;;;;;;15.80;3.03;;;7.10;99.90;;;;;;5051082;28;20056;-84
2023/03/26 02:04:45;;;;;;;10.35;2.40;;;7.10;99.90;;;;;;5069732;28;20036;-84
2023/03/26 02:07:33;;;;;;;11.65;2.60;;;7.10;99.90;;;;;;5051577;28;20075;-84
2023/03/26 02:10:05;;;;;;;6.90;2.25;;;7.10;99.90;;;;;;5071698;28;20050;-84
2023/03/26 02:12:31;;;;;;;20.48;3.03;;;7.10;99.90;;;;;;5068637;28;20044;-84
2023/03/26 02:15:00;;;;;;;16.10;2.45;;;7.00;99.90;;;;;;5071300;28;20053;-84
2023/03/26 02:17:28;;;;;;;12.38;2.42;;;7.00;99.90;;;;;;5060814;28;20067;-85
2023/03/26 02:19:55;;;;;;;12.13;2.10;;;7.00;99.90;;;;;;5058308;28;20037;-84
2023/03/26 02:22:21;;;;;;;10.90;1.73;;;6.90;99.90;;;;;;5048303;28;20052;-84
2023/03/26 02:24:47;;;;;;;14.73;2.15;;;6.90;99.90;;;;;;5058821;28;20044;-84
2023/03/26 02:27:17;;;;;;;14.50;2.20;;;6.90;99.90;;;;;;5058525;28;20516;-84
2023/03/26 02:29:43;;;;;;;13.35;2.92;;;6.80;99.90;;;;;;5070487;28;20059;-84
2023/03/26 02:32:13;;;;;;;10.38;2.40;;;6.70;99.90;;;;;;5062506;28;20393;-84
2023/03/26 02:34:42;;;;;;;10.05;1.90;;;6.70;99.90;;;;;;5069854;28;20061;-84
2023/03/26 02:37:08;;;;;;;9.93;1.88;;;6.70;99.90;;;;;;5083041;28;20079;-86
2023/03/26 02:39:35;;;;;;;8.77;2.33;;;6.70;99.90;;;;;;5052266;28;20444;-84
2023/03/26 02:42:00;;;;;;;10.93;2.03;;;6.70;99.90;;;;;;5053946;28;20405;-84
2023/03/26 02:44:26;;;;;;;10.05;2.60;;;6.70;99.90;;;;;;5072546;28;20044;-84
2023/03/26 02:46:52;;;;;;;10.45;2.53;;;6.60;99.90;;;;;;5052851;28;20040;-84
2023/03/26 02:49:18;;;;;;;9.18;2.05;;;6.60;99.90;;;;;;5078634;28;20048;-84
2023/03/26 02:51:44;;;;;;;13.18;2.25;;;6.60;99.90;;;;;;5053772;28;20497;-84
2023/03/26 02:54:09;;;;;;;13.02;2.53;;;6.70;99.90;;;;;;5049502;28;20128;-85
2023/03/26 02:56:35;;;;;;;10.55;2.15;;;6.60;99.90;;;;;;5083534;28;20053;-84
2023/03/26 02:59:01;;;;;;;9.30;2.40;;;6.60;99.90;;;;;;5065829;28;20445;-85
2023/03/26 03:01:29;;;;;;;12.63;2.05;;;6.60;99.90;;;;;;5053716;28;20039;-84
2023/03/26 03:03:55;;;;;;;10.10;2.25;;;6.60;99.90;;;;;;5064739;28;20057;-85
2023/03/26 03:06:21;;;;;;;12.45;2.70;;;6.50;99.90;;;;;;5051762;28;20448;-85
2023/03/26 03:08:47;;;;;;;9.65;1.88;;;6.40;99.90;;;;;;5065803;28;20585;-85
2023/03/26 03:11:16;;;;;;;9.63;3.05;;;6.40;99.90;;;;;;5065161;28;20379;-86
2023/03/26 03:13:43;;;;;;;13.18;2.47;;;6.30;99.90;;;;;;5048389;28;20045;-84
2023/03/26 03:16:09;;;;;;;12.75;3.22;;;6.20;99.90;;;;;;5054397;28;20052;-84
2023/03/26 03:18:36;;;;;;;14.90;2.38;;;6.00;99.90;;;;;;5077630;28;20140;-85
2023/03/26 03:21:03;;;;;;;12.27;2.60;;;6.00;99.90;;;;;;5076148;28;20043;-84
2023/03/26 03:23:29;;;;;;;11.65;2.38;;;5.80;99.90;;;;;;5055078;28;20048;-84
2023/03/26 03:25:56;;;;;;;15.48;2.65;;;5.80;99.90;;;;;;5060869;28;20044;-84
2023/03/26 03:28:22;;;;;;;11.10;2.33;;;5.70;99.90;;;;;;5070614;28;20588;-84
2023/03/26 03:30:51;;;;;;;18.20;3.10;;;5.60;99.90;;;;;;5069487;28;20052;-84
2023/03/26 03:33:19;;;;;;;15.63;2.58;;;5.60;99.90;;;;;;5053238;28;20048;-86
2023/03/26 03:35:49;;;;;;;17.30;2.33;;;5.40;99.90;;;;;;5087219;28;20066;-83
2023/03/26 03:38:16;;;;;;;17.45;2.95;;;5.30;99.90;;;;;;5032391;28;20073;-85
2023/03/26 03:40:42;;;;;;;11.35;2.42;;;5.30;99.90;;;;;;5085882;28;20052;-84
2023/03/26 03:43:08;;;;;;;21.48;2.95;;;5.20;99.90;;;;;;5067942;28;20053;-84
2023/03/26 03:45:34;;;;;;;16.08;2.88;;;5.10;99.90;;;;;;5050918;28;20052;-83
2023/03/26 03:48:00;;;;;;;12.70;2.40;;;5.00;99.90;;;;;;5042070;28;20504;-84
2023/03/26 03:50:25;;;;;;;8.45;2.40;;;5.00;99.90;;;;;;5047384;28;20048;-84
2023/03/26 03:52:51;;;;;;;14.60;2.95;;;4.90;99.90;;;;;;5054267;28;20052;-84
2023/03/26 03:55:17;;;;;;;9.00;2.40;;;4.90;99.90;;;;;;5083005;28;20059;-85
2023/03/26 03:57:43;;;;;;;19.55;2.78;;;4.90;99.90;;;;;;5067365;28;20052;-84
2023/03/26 04:00:10;;;;;;;12.98;2.33;;;4.80;99.90;;;;;;5062141;28;20044;-85
2023/03/26 04:02:36;;;;;;;13.32;2.92;;;4.80;99.90;;;;;;5069236;28;20517;-84
2023/03/26 04:05:04;;;;;;;10.27;2.15;;;4.70;99.90;;;;;;5076116;28;20042;-84
2023/03/26 04:07:31;;;;;;;9.90;2.88;;;4.60;99.90;;;;;;5073739;28;20193;-84
2023/03/26 04:09:58;;;;;;;9.82;2.20;;;4.60;99.90;;;;;;5078464;28;20123;-85
2023/03/26 04:12:26;;;;;;;10.55;2.45;;;4.60;99.90;;;;;;5059447;28;20067;-84
2023/03/26 04:14:53;;;;;;;12.63;2.65;;;4.50;99.90;;;;;;5052225;28;20051;-85
2023/03/26 04:17:20;;;;;;;12.82;2.35;;;4.50;99.90;;;;;;5047478;28;20162;-84
2023/03/26 04:19:47;;;;;;;8.20;2.13;;;4.50;99.90;;;;;;5079965;28;20039;-85
2023/03/26 04:22:12;;;;;;;10.55;2.50;;;4.50;99.90;;;;;;5073917;28;20048;-84
2023/03/26 04:24:41;;;;;;;11.88;2.40;;;4.60;99.90;;;;;;5063599;28;20523;-85
2023/03/26 04:27:11;;;;;;;9.85;2.20;;;4.60;99.90;;;;;;5042391;28;20071;-84
2023/03/26 04:29:41;;;;;;;10.57;2.50;;;4.60;99.90;;;;;;5073950;28;20044;-83
2023/03/26 04:32:19;;;;;;;14.77;3.15;;;4.60;99.90;;;;;;5086565;28;20110;-83
2023/03/26 04:34:45;;;;;;;15.00;2.60;;;4.60;99.90;;;;;;5072187;28;20817;-84
2023/03/26 04:37:26;;;;;;;13.60;2.60;;;4.70;99.90;;;;;;5050566;28;20106;-84
2023/03/26 04:39:53;;;;;;;13.52;2.22;;;4.80;99.90;;;;;;5066731;28;20043;-84
2023/03/26 04:42:19;;;;;;;16.08;3.63;;;4.80;99.90;;;;;;5058602;28;20055;-84
2023/03/26 04:44:49;;;;;;;16.92;3.33;;;4.90;99.90;;;;;;5068125;28;20104;-83
2023/03/26 04:47:16;;;;;;;19.15;2.50;;;4.90;99.90;;;;;;5066633;28;20041;-84
2023/03/26 04:49:43;;;;;;;12.15;2.88;;;5.00;99.90;;;;;;5055554;28;20059;-84
2023/03/26 04:52:11;;;;;;;11.52;2.67;;;5.00;99.90;;;;;;5089782;28;20102;-84
2023/03/26 04:54:37;;;;;;;13.95;2.13;;;5.00;99.90;;;;;;5070733;28;20101;-84
2023/03/26 04:57:27;;;;;;;19.33;3.50;;;5.10;99.90;;;;;;5072823;28;20102;-84
2023/03/26 04:59:53;;;;;;;12.63;2.33;;;5.10;99.90;;;;;;5062821;28;20056;-84
2023/03/26 05:02:19;;;;;;;12.35;2.50;;;5.20;99.90;;;;;;5067826;28;20433;-84
2023/03/26 05:04:44;;;;;;;17.10;3.55;;;5.30;99.90;;;;;;5068631;28;20539;-84
2023/03/26 05:07:15;;;;;;;20.50;2.60;;;5.20;99.90;;;;;;5055814;28;21777;-84
2023/03/26 05:09:41;;;;;;;23.70;3.17;;;5.30;99.90;;;;;;5070559;28;20105;-85
2023/03/26 05:12:07;;;;;;;17.80;2.80;;;5.30;99.90;;;;;;5069588;28;21450;-84
2023/03/26 05:14:32;;;;;;;11.30;2.28;;;5.30;99.90;;;;;;5063475;28;20048;-84
2023/03/26 05:17:00;;;;;;;8.30;3.08;;;5.30;99.90;;;;;;5054647;28;20051;-83
2023/03/26 05:19:26;;;;;;;13.70;3.25;;;5.30;99.90;;;;;;5071426;28;20138;-84
2023/03/26 05:21:51;;;;;;;11.52;3.55;;;5.30;99.90;;;;;;5070728;28;20040;-84
2023/03/26 05:24:18;;;;;;;18.75;5.95;;;5.40;99.90;;;;;;5033815;28;20582;-84
2023/03/26 05:26:44;;;;;;;14.05;4.22;;;5.30;99.90;;;;;;5087896;28;20051;-84
2023/03/26 05:29:16;;;;;;;13.95;3.20;;;5.40;99.90;;;;;;5075389;28;20043;-83
2023/03/26 05:31:43;;;;;;;13.73;2.60;;;5.40;99.90;;;;;;5058024;28;20553;-83
2023/03/26 05:34:09;;;;;;;14.20;3.42;;;5.40;99.90;;;;;;5068302;28;20130;-83
2023/03/26 05:36:35;;;;;;;22.10;2.88;;;5.50;99.90;;;;;;5070256;28;20083;-84
2023/03/26 05:39:01;;;;;;;19.02;2.72;;;5.50;99.90;;;;;;5038936;28;20052;-85
2023/03/26 05:41:27;;;;;;;13.40;3.17;;;5.60;99.90;;;;;;5054319;28;20055;-84
2023/03/26 05:43:53;;;;;;;18.65;3.28;;;5.60;99.90;;;;;;5058031;28;20040;-84
2023/03/26 05:46:20;;;;;;;15.27;3.13;;;5.60;99.90;;;;;;5072230;28;20940;-83
2023/03/26 05:48:46;;;;;;;20.13;3.10;;;5.60;99.90;;;;;;5096185;28;20408;-83
2023/03/26 05:51:14;;;;;;;18.42;4.30;;;5.60;99.90;;;;;;5091357;28;20048;-83
2023/03/26 05:53:40;;;;;;;11.98;2.97;;;5.70;99.90;;;;;;5071084;28;20478;-84
2023/03/26 05:56:06;;;;;;;19.55;3.97;;;5.70;99.90;;;;;;5087937;28;20097;-83
2023/03/26 05:58:33;;;;;;;19.10;3.85;;;5.80;99.90;;;;;;5038951;28;20052;-84
2023/03/26 06:01:08;;;;;;;19.58;4.07;;;5.80;99.90;;;;;;5053920;28;20059;-83
2023/03/26 06:03:36;;;;;;;14.65;3.55;;;5.90;99.90;;;;;;5071781;28;20081;-83
2023/03/26 06:06:05;;;;;;;14.02;3.38;;;5.90;99.90;;;;;;5081270;28;20052;-83
2023/03/26 06:08:32;;;;;;;19.25;4.15;;;5.90;99.90;;;;;;5042717;28;20052;-84
2023/03/26 06:11:06;;;;;;;16.77;3.35;;;6.00;99.90;;;;;;5087745;28;20044;-83
2023/03/26 06:13:33;;;;;;;13.48;4.05;;;6.10;99.90;;;;;;5036212;28;20048;-84
2023/03/26 06:15:58;;;;;;;13.07;3.38;;;6.10;99.90;;;;;;5073646;28;20641;-84
2023/03/26 06:18:25;;;;;;;17.63;3.20;;;6.20;99.90;;;;;;5044558;28;20179;-83
2023/03/26 06:20:51;;;;;;;15.10;3.30;;;6.20;99.90;;;;;;5057123;28;20048;-85
2023/03/26 06:23:18;;;;;;;16.38;3.20;;;6.30;99.90;;;;;;5074838;28;20091;-84
2023/03/26 06:25:46;;;;;;;14.88;3.22;;;6.50;99.90;;;;;;5075400;28;21470;-83
2023/03/26 06:28:12;;;;;;;18.10;3.55;;;6.50;99.90;;;;;;5027418;28;20051;-84
2023/03/26 06:30:38;;;;;;;12.35;3.28;;;6.40;99.90;;;;;;5051815;28;20052;-82
2023/03/26 06:33:04;;;;;;;15.73;3.17;;;6.70;99.90;;;;;;5060541;28;20071;-83
2023/03/26 06:35:30;;;;;;;11.93;3.15;;;6.70;99.90;;;;;;5072503;28;20048;-84
2023/03/26 06:37:57;;;;;;;15.23;3.28;;;6.70;99.90;;;;;;5049489;28;20413;-85
2023/03/26 06:40:23;;;;;;;20.42;3.30;;;6.80;99.90;;;;;;5049654;28;20068;-83
2023/03/26 06:42:48;;;;;;;14.52;2.65;;;6.80;99.90;;;;;;5043856;28;20156;-82
2023/03/26 06:45:14;;;;;;;11.52;2.60;;;6.90;99.90;;;;;;5075911;28;20051;-84
2023/03/26 06:47:40;;;;;;;24.25;3.08;;;7.00;99.90;;;;;;5056801;28;20406;-86
2023/03/26 06:50:06;;;;;;;14.88;2.33;;;7.00;99.90;;;;;;5068585;28;20056;-82
2023/03/26 06:52:32;;;;;;;15.02;2.53;;;7.10;99.90;;;;;;5051339;28;20044;-86
2023/03/26 06:54:57;;;;;;;23.98;3.95;;;7.10;99.90;;;;;;5057399;28;20104;-85
2023/03/26 06:57:23;;;;;;;13.43;2.10;;;7.20;99.90;;;;;;5058370;28;20045;-85
2023/03/26 06:59:49;;;;;;;12.23;1.75;;;7.20;99.90;;;;;;5064383;28;20047;-85
2023/03/26 07:02:15;;;;;;;11.07;1.88;;;7.20;99.90;;;;;;5051722;28;20076;-85
2023/03/26 07:04:40;;;;;;;16.90;2.60;;;7.10;99.90;;;;;;5051029;28;20040;-85
2023/03/26 07:07:06;;;;;;;14.82;2.20;;;7.10;99.90;;;;;;5057173;28;20175;-85
2023/03/26 07:09:32;;;;;;;12.55;2.40;;;7.10;99.90;;;;;;5057808;28;20075;-83
2023/03/26 07:11:58;;;;;;;15.77;2.63;;;7.10;99.90;;;;;;5070689;28;20050;-83
2023/03/26 07:14:26;;;;;;;13.35;1.98;;;7.10;99.90;;;;;;5063955;28;20047;-82
2023/03/26 07:16:52;;;;;;;20.80;3.08;;;7.10;99.90;;;;;;5049995;28;20044;-86
2023/03/26 07:19:18;;;;;;;14.50;1.75;;;7.20;99.90;;;;;;5074166;28;20055;-85
2023/03/26 07:21:45;;;;;;;15.23;2.08;;;7.30;99.90;;;;;;5040426;28;20044;-85
2023/03/26 07:24:12;;;;;;;17.70;4.18;;;7.30;99.90;;;;;;5037332;28;20044;-85
2023/03/26 07:27:01;;;;;;;14.88;2.00;;;7.40;99.90;;;;;;5067575;28;20463;-85
2023/03/26 07:29:29;;;;;;;12.95;1.70;;;7.40;99.90;;;;;;5047713;28;20160;-85
2023/03/26 07:32:01;;;;;;;15.98;2.85;;;7.40;99.90;;;;;;5056418;28;20040;-85
2023/03/26 07:34:50;;;;;;;17.23;2.20;;;7.50;99.90;;;;;;5074514;28;20048;-84
2023/03/26 07:37:39;;;;;;;19.30;2.95;;;7.60;99.90;;;;;;5066854;28;20049;-85
2023/03/26 07:40:23;;;;;;;14.20;2.17;;;7.60;99.90;;;;;;5067233;28;20044;-85
2023/03/26 07:43:07;;;;;;;17.80;2.67;;;7.70;99.90;;;;;;5084348;28;20052;-85
2023/03/26 07:45:38;;;;;;;13.93;3.30;;;7.80;99.90;;;;;;5063709;28;20469;-85
2023/03/26 07:48:16;;;;;;;15.35;3.13;;;7.90;99.90;;;;;;5077005;28;20123;-85
2023/03/26 07:50:43;;;;;;;14.63;2.83;;;7.90;99.90;;;;;;5083497;28;20067;-85
2023/03/26 07:53:09;;;;;;;12.68;2.10;;;7.90;99.90;;;;;;5080355;28;20519;-86
2023/03/26 07:56:01;;;;;;;11.98;1.67;;;7.90;99.90;;;;;;5046399;28;20048;-86
2023/03/26 07:58:49;;;;;;;17.60;2.80;;;8.00;99.90;;;;;;5070350;28;20055;-85
2023/03/26 08:01:40;;;;;;;15.15;2.70;;;7.90;99.90;;;;;;5059987;28;20044;-85
2023/03/26 08:04:42;;;;;;;8.10;1.98;;;7.80;99.90;;;;;;5062466;28;20045;-85
2023/03/26 08:07:20;;;;;;;14.05;2.30;;;7.80;99.90;;;;;;5073194;28;20491;-85
2023/03/26 08:09:49;;;;;;;10.10;1.80;;;7.80;99.90;;;;;;5071258;28;20055;-85
2023/03/26 08:12:30;;;;;;;17.73;1.88;;;8.00;99.90;;;;;;5053763;28;20048;-85
2023/03/26 08:15:28;;;;;;;14.38;2.05;;;8.10;99.90;;;;;;5081644;28;20052;-84
2023/03/26 08:18:12;;;;;;;13.50;2.03;;;8.30;99.90;;;;;;5065757;28;20521;-85
2023/03/26 08:20:57;;;;;;;13.98;1.70;;;8.40;99.90;;;;;;5061563;28;20385;-85
2023/03/26 08:23:28;;;;;;;13.63;2.08;;;8.30;99.90;;;;;;5072659;28;20047;-85
2023/03/26 08:26:04;;;;;;;14.95;2.05;;;8.30;99.90;;;;;;5065610;28;20101;-84
2023/03/26 08:28:49;;;;;;;;;;;8.40;99.90;;;;;;5068166;28;20091;-86
2023/03/26 08:31:16;;;;;;;12.68;1.88;;;8.50;99.90;;;;;;5072897;28;19956;-86
2023/03/26 08:33:42;;;;;;;14.60;1.90;;;8.60;99.90;;;;;;5072564;28;20145;-84
2023/03/26 08:36:08;;;;;;;14.35;2.03;;;8.70;99.90;;;;;;5056099;28;20512;-85
2023/03/26 08:38:34;;;;;;;12.65;2.20;;;8.80;99.90;;;;;;5055754;28;20097;-84
2023/03/26 08:41:25;;;;;;;20.52;3.60;;;8.80;99.90;;;;;;5073173;28;20054;-85
2023/03/26 08:44:15;;;;;;;9.68;1.45;;;8.90;99.90;;;;;;5061851;28;20055;-85
2023/03/26 08:47:05;;;;;;;11.25;2.08;;;9.00;99.90;;;;;;5072505;28;20048;-85
2023/03/26 08:49:55;;;;;;;12.00;1.67;;;9.00;99.90;;;;;;5072263;28;20378;-85
2023/03/26 08:52:40;;;;;;;12.00;2.03;;;9.00;99.90;;;;;;5072063;28;20043;-84
2023/03/26 08:55:19;;;;;;;11.93;1.60;;;9.00;99.90;;;;;;5061079;28;20044;-86
2023/03/26 08:58:32;;;;;;;12.25;1.70;;;8.80;99.90;;;;;;5072298;28;20050;-85
2023/03/26 09:00:58;;;;;;;12.50;1.95;;;8.70;99.90;;;;;;5035538;28;20075;-85
2023/03/26 09:03:55;;;;;;;16.25;1.83;;;8.70;99.90;;;;;;5055877;28;20048;-85
2023/03/26 09:06:42;;;;;;;10.32;1.75;;;8.70;99.90;;;;;;5056974;28;20067;-83
2023/03/26 09:09:36;;;;;;;9.25;1.98;;;8.80;99.90;;;;;;5047305;28;20059;-82
2023/03/26 09:12:23;;;;;;;13.07;1.60;;;8.80;99.90;;;;;;5078561;28;20122;-88
2023/03/26 09:15:21;;;;;;;8.70;1.92;;;8.90;99.90;;;;;;5061190;28;20511;-84
2023/03/26 09:18:17;;;;;;;18.52;1.60;;;9.00;99.90;;;;;;5059656;28;20048;-85
2023/03/26 09:20:50;;;;;;;13.73;2.70;;;9.00;99.90;;;;;;5034243;28;20512;-85
2023/03/26 09:23:42;;;;;;;13.43;2.17;;;9.10;99.90;;;;;;5066205;28;20048;-85
2023/03/26 09:26:46;;;;;;;11.90;2.17;;;9.20;99.90;;;;;;5076885;28;20433;-85
2023/03/26 09:29:37;;;;;;;15.43;2.13;;;9.30;99.90;;;;;;5071576;28;20049;-85
2023/03/26 09:32:53;;;;;;;9.27;1.90;;;9.40;99.90;;;;;;5054097;28;20466;-85
2023/03/26 09:35:24;;;;;;;9.25;1.80;;;9.60;99.90;;;;;;4974350;28;20411;-84
2023/03/26 09:38:11;;;;;;;9.20;1.58;;;9.80;99.90;;;;;;5066082;28;20053;-85
2023/03/26 09:41:00;;;;;;;8.07;2.33;;;9.90;97.20;;;;;;5072076;28;20569;-85
2023/03/26 09:43:54;;;;;;;15.52;3.28;;;10.00;99.90;;;;;;5087858;28;20071;-85
2023/03/26 09:46:23;;;;;;;9.77;1.88;;;10.30;99.90;;;;;;5034863;28;20064;-85
2023/03/26 09:49:25;;;;;;;9.75;1.98;;;10.30;99.90;;;;;;5071851;28;20052;-85
2023/03/26 09:52:12;;;;;;;9.75;1.92;;;10.40;99.90;;;;;;5071583;28;20060;-85
2023/03/26 09:54:47;;;;;;;13.55;3.03;;;10.50;99.90;;;;;;5071070;28;20064;-84
2023/03/26 09:57:37;;;;;;;10.07;1.77;;;10.50;99.90;;;;;;5054737;28;20058;-85
2023/03/26 10:00:25;;;;;;;9.85;2.53;;;10.40;96.00;;;;;;5078311;28;20143;-85
2023/03/26 10:02:53;;;;;;;11.02;2.22;;;10.40;99.90;;;;;;5069041;28;20051;-85
2023/03/26 10:05:46;;;;;;;9.88;2.20;;;10.50;84.20;;;;;;5069000;28;20044;-84
2023/03/26 10:08:30;;;;;;;8.93;2.35;;;10.60;96.30;;;;;;5044628;28;20100;-84
2023/03/26 10:11:23;;;;;;;20.17;2.42;;;10.70;74.00;;;;;;5070718;28;20048;-85
2023/03/26 10:14:00;;;;;;;9.70;1.98;;;10.50;1.00;;;;;;5071154;28;20521;-85
2023/03/26 10:16:50;;;;;;;11.32;1.58;;;10.20;1.00;;;;;;5071263;28;20052;-84
2023/03/26 10:19:38;;;;;;;13.82;1.85;;;9.90;1.00;;;;;;5060794;28;20070;-86
2023/03/26 10:22:21;;;;;;;14.35;2.00;;;9.70;1.00;;;;;;5054278;28;20405;-86
2023/03/26 10:25:18;;;;;;;11.20;2.15;;;9.70;1.00;;;;;;5051849;28;20043;-85
2023/03/26 10:28:05;;;;;;;9.27;1.35;;;9.70;1.00;;;;;;5046999;28;20043;-86
2023/03/26 10:31:02;;;;;;;12.23;2.05;;;9.90;37.40;;;;;;5053083;28;20577;-86
2023/03/26 10:33:39;;;;;;;;;;;9.90;1.00;;;;;;5054315;28;20048;-85
2023/03/26 10:36:08;;;;;;;11.02;1.25;;;10.00;1.00;;;;;;5070706;28;20443;-85
2023/03/26 10:39:00;;;;;;;13.00;1.70;;;10.10;11.90;;;;;;5055981;28;20067;-85
2023/03/26 10:41:53;;;;;;;14.43;2.85;;;10.20;1.00;;;;;;5070250;28;20432;-85
2023/03/26 10:45:02;;;;;;;9.60;1.77;;;10.30;1.00;;;;;;5062003;28;20132;-85
2023/03/26 10:48:08;;;;;;;11.85;1.77;;;10.20;1.00;;;;;;5055470;28;20401;-85
2023/03/26 10:51:16;;;;;;;10.20;1.80;;;10.00;1.00;;;;;;5049441;28;20048;-86
2023/03/26 10:53:59;;;;;;;14.43;2.08;;;9.70;1.00;;;;;;5064561;28;20047;-87
2023/03/26 10:56:44;;;;;;;12.75;1.52;;;9.70;1.00;;;;;;5039475;28;20041;-87
2023/03/26 10:59:15;;;;;;;21.75;2.67;;;9.60;1.00;;;;;;5071776;28;20481;-86
2023/03/26 11:01:55;;;;;;;9.45;1.60;;;9.60;1.00;;;;;;5054558;28;20044;-86
2023/03/26 11:04:47;;;;;;;15.23;2.15;;;9.70;1.00;;;;;;5071405;28;20398;-85
2023/03/26 11:07:28;;;;;;;9.40;1.70;;;9.60;1.00;;;;;;5068986;28;20047;-87
2023/03/26 11:10:23;;;;;;;12.65;2.00;;;9.60;1.00;;;;;;5074862;28;20043;-86
2023/03/26 11:13:13;;;;;;;9.82;1.80;;;9.60;1.00;;;;;;5062730;28;20056;-85
2023/03/26 11:16:02;;;;;;;8.85;1.90;;;9.50;99.90;;;;;;5044168;28;20090;-86
2023/03/26 11:18:40;;;;;;;15.05;2.42;;;9.50;1.00;;;;;;5073951;28;20046;-86
2023/03/26 11:21:36;;;;;;;9.15;2.13;;;9.50;1.00;;;;;;5074808;28;20735;-87
2023/03/26 11:24:32;;;;;;;12.57;2.75;;;9.50;1.00;;;;;;5065384;28;20059;-86
2023/03/26 11:27:05;;;;;;;13.18;1.80;;;9.70;1.00;;;;;;5056964;28;20043;-86
2023/03/26 11:29:44;;;;;;;11.13;2.03;;;9.70;99.90;;;;;;5074162;28;20080;-87
2023/03/26 11:32:19;;;;;;;11.90;1.88;;;9.70;1.00;;;;;;5057196;28;20393;-86
2023/03/26 11:34:57;;;;;;;13.55;1.98;;;9.50;58.10;;;;;;5073306;28;20127;-86
2023/03/26 11:37:38;;;;;;;12.98;2.17;;;9.40;99.90;;;;;;5059092;28;20052;-84
2023/03/26 11:40:15;;;;;;;11.80;2.08;;;9.40;99.90;;;;;;5075530;28;20041;-86
2023/03/26 11:42:42;;;;;;;14.23;2.83;;;9.50;99.90;;;;;;5055180;28;20484;-86
2023/03/26 11:45:17;;;;;;;10.98;2.60;;;9.50;99.90;;;;;;5054361;28;20737;-87
2023/03/26 11:47:55;;;;;;;13.25;2.40;;;9.60;99.90;;;;;;5054643;28;20506;-86
2023/03/26 11:50:26;;;;;;;13.13;1.63;;;9.70;72.10;;;;;;5066293;28;20040;-86
2023/03/26 11:52:57;;;;;;;7.68;1.65;;;9.70;1.00;;;;;;5070968;28;20520;-87
2023/03/26 11:55:24;;;;;;;8.82;1.60;;;9.70;60.30;;;;;;5055129;28;20071;-86
2023/03/26 11:57:54;;;;;;;17.70;1.95;;;9.80;99.90;;;;;;5054698;28;20055;-86
2023/03/26 12:00:26;;;;;;;9.50;1.65;;;9.90;1.00;;;;;;5048105;28;20048;-86
2023/03/26 12:02:56;;;;;;;12.32;2.70;;;10.00;99.90;;;;;;5073115;28;20126;-86
2023/03/26 12:05:25;;;;;;;12.02;1.60;;;10.10;99.90;;;;;;5073427;28;20075;-85
2023/03/26 12:07:53;;;;;;;9.50;2.28;;;10.10;70.10;;;;;;5073145;28;20100;-86
2023/03/26 12:10:25;;;;;;;11.63;2.03;;;10.10;1.00;;;;;;5061830;28;20056;-85
2023/03/26 12:12:54;;;;;;;14.68;1.63;;;10.00;99.90;;;;;;5060211;28;20056;-86
2023/03/26 12:15:21;;;;;;;14.38;1.70;;;10.00;1.00;;;;;;5056973;28;20082;-87
2023/03/26 12:17:52;;;;;;;12.48;1.58;;;10.00;1.00;;;;;;5090060;28;20048;-87
2023/03/26 12:20:30;;;;;;;8.63;1.67;;;10.10;1.00;;;;;;5062162;28;20052;-86
2023/03/26 12:23:06;;;;;;;11.55;2.17;;;10.10;99.90;;;;;;5072727;28;20114;-85
2023/03/26 12:25:37;;;;;;;;;;;10.00;99.90;;;;;;5084152;28;20497;-85
2023/03/26 12:28:12;;;;;;;11.57;1.95;;;9.90;91.90;;;;;;5071568;28;19925;-86
2023/03/26 12:30:40;;;;;;;8.93;1.50;;;10.00;99.90;;;;;;5076308;28;20052;-86
2023/03/26 12:33:26;;;;;;;8.10;2.10;;;9.80;99.90;;;;;;5070716;28;20095;-86
2023/03/26 12:35:54;;;;;;;11.25;1.70;;;9.80;99.90;;;;;;5063345;28;20052;-86
2023/03/26 12:38:32;;;;;;;18.40;2.30;;;9.90;99.90;;;;;;5074120;28;20114;-87
2023/03/26 12:41:32;;;;;;;11.63;2.05;;;10.00;99.90;;;;;;5064281;28;20058;-85
2023/03/26 12:44:25;;;;;;;9.05;1.75;;;10.00;14.50;;;;;;5079684;28;20079;-86
2023/03/26 12:47:05;;;;;;;14.68;4.68;;;10.20;1.00;;;;;;5072873;28;20052;-86
2023/03/26 12:49:30;;;;;;;10.60;2.38;;;10.40;99.90;;;;;;5073503;28;20706;-86
2023/03/26 12:52:41;;;;;;;8.13;1.25;;;10.40;99.90;;;;;;5072502;28;20056;-85
2023/03/26 12:55:14;;;;;;;10.75;2.38;;;10.30;59.00;;;;;;4992908;28;20042;-86
2023/03/26 12:58:34;;;;;;;10.23;1.50;;;10.00;99.90;;;;;;4972158;28;20046;-87
2023/03/26 13:01:26;;;;;;;6.40;1.08;;;9.90;1.00;;;;;;4950121;28;20053;-86
2023/03/26 13:04:13;;;;;;;9.15;1.15;;;9.90;1.00;;;;;;5071873;28;20145;-85
2023/03/26 13:06:52;;;;;;;5.95;1.35;;;10.00;1.00;;;;;;5088376;28;20043;-85
2023/03/26 13:09:26;;;;;;;14.65;1.67;;;10.00;1.00;;;;;;5054430;28;20563;-86
2023/03/26 13:12:00;;;;;;;10.15;1.35;;;10.10;1.00;;;;;;5072224;28;20097;-86
2023/03/26 13:14:38;;;;;;;9.40;2.22;;;10.20;1.00;;;;;;5060770;28;20127;-86
2023/03/26 13:17:27;;;;;;;5.80;1.20;;;10.20;1.00;;;;;;5056268;28;20137;-86
2023/03/26 13:20:11;;;;;;;6.43;1.23;;;10.90;1.00;;;;;;5058511;28;20052;-86
2023/03/26 13:23:07;;;;;;;3.63;1.17;;;12.50;1.00;;;;;;5072846;28;20080;-86
2023/03/26 13:25:48;;;;;;;11.25;1.10;;;13.40;1.00;;;;;;5052310;28;20075;-86
2023/03/26 13:28:17;;;;;;;5.30;1.33;;;12.90;1.00;;;;;;5069273;28;20052;-86
2023/03/26 13:31:01;;;;;;;13.35;1.75;;;12.10;1.00;;;;;;5074844;28;20098;-86